Time;durP1;ratioP1;P1;durP2;ratioP2;P2;SDS_P1;SDS_P2;PMS_P1;PMS_P2;Temp;Humidity;BMP_temperature;BMP_pressure;BME280_temperature;BME280_humidity;BME280_pressure;Samples;Min_cycle;Max_cycle;Signal;HPM_P1;HPM_P2
2022/01/31 05:08:55;;;;;;;16.17;3.12;;;;;;;2.60;50.36;100112.59;5560815;32;171592;-81
2022/01/31 05:11:59;;;;;;;11.80;3.10;;;;;;;2.70;49.83;100100.16;5547104;32;33727;-81
2022/01/31 05:15:01;;;;;;;19.67;3.20;;;;;;;2.64;50.23;100067.09;5547251;32;34059;-81
2022/01/31 05:18:04;;;;;;;14.25;3.95;;;;;;;2.69;49.81;100070.50;5546483;32;34240;-81
2022/01/31 05:21:08;;;;;;;15.25;3.25;;;;;;;2.60;50.49;100051.47;5546616;32;33861;-82
2022/01/31 05:24:11;;;;;;;12.27;3.10;;;;;;;2.56;51.15;100050.69;5547407;32;34899;-82
2022/01/31 05:27:14;;;;;;;10.48;2.62;;;;;;;2.49;51.60;100067.41;5547822;32;34461;-82
2022/01/31 05:30:17;;;;;;;15.40;2.80;;;;;;;2.46;51.79;100063.09;5546929;32;34198;-82
2022/01/31 05:33:19;;;;;;;8.38;2.53;;;;;;;2.39;51.98;100078.09;5547262;32;34172;-82
2022/01/31 05:36:22;;;;;;;10.95;2.87;;;;;;;2.42;52.03;100071.94;5546923;32;34279;-82
2022/01/31 05:39:25;;;;;;;14.20;3.22;;;;;;;2.35;52.52;100065.09;5547159;32;33891;-82
2022/01/31 05:42:28;;;;;;;10.70;3.08;;;;;;;2.32;52.35;100055.56;5547111;32;34477;-82
2022/01/31 05:45:30;;;;;;;10.48;2.62;;;;;;;2.27;52.53;100045.16;5547073;32;34380;-82
2022/01/31 05:48:33;;;;;;;14.90;2.90;;;;;;;2.48;52.04;100031.66;5544368;32;34259;-81
2022/01/31 05:51:44;;;;;;;12.63;3.00;;;;;;;2.33;52.53;100028.50;5544163;32;34362;-82
2022/01/31 05:54:46;;;;;;;9.05;2.85;;;;;;;2.39;52.77;100033.59;5534398;32;34017;-82
2022/01/31 05:57:49;;;;;;;14.82;3.03;;;;;;;2.41;52.46;100026.56;5540965;32;34786;-81
2022/01/31 06:00:56;;;;;;;14.02;3.25;;;;;;;2.26;52.88;100022.50;5538439;32;34375;-82
2022/01/31 06:03:59;;;;;;;11.95;3.22;;;;;;;2.20;53.20;100027.88;5538262;32;34006;-81
2022/01/31 06:07:02;;;;;;;16.15;3.70;;;;;;;2.14;53.50;100031.50;5531034;32;34817;-82
2022/01/31 06:10:05;;;;;;;13.57;3.03;;;;;;;2.13;53.89;100045.47;5542415;32;33867;-82
2022/01/31 06:13:08;;;;;;;16.25;3.87;;;;;;;2.14;53.79;100051.56;5539448;32;34054;-82
2022/01/31 06:16:11;;;;;;;17.20;3.40;;;;;;;2.27;53.79;100052.19;5544970;32;33987;-86
2022/01/31 06:19:14;;;;;;;14.10;3.30;;;;;;;2.19;53.81;100048.84;5535961;32;33810;-86
2022/01/31 06:22:18;;;;;;;10.73;3.50;;;;;;;2.21;53.59;100033.97;5513711;32;34541;-86
2022/01/31 06:25:20;;;;;;;13.85;3.12;;;;;;;2.26;53.64;100040.00;5522832;32;33836;-86
2022/01/31 06:28:24;;;;;;;12.00;3.05;;;;;;;2.26;53.60;100040.00;5530513;32;33643;-83
2022/01/31 06:31:33;;;;;;;9.60;3.10;;;;;;;2.21;53.80;100039.22;5520613;32;32331;-82
2022/01/31 06:34:36;;;;;;;12.88;3.33;;;;;;;2.16;54.01;100039.28;5519314;32;34449;-82
2022/01/31 06:37:38;;;;;;;18.10;3.47;;;;;;;2.32;53.72;100031.13;5521839;32;34231;-82
2022/01/31 06:40:42;;;;;;;22.00;3.72;;;;;;;2.40;53.51;100023.97;5531737;32;33960;-82
2022/01/31 06:43:46;;;;;;;13.30;3.17;;;;;;;2.42;53.56;100025.66;5521410;32;34639;-82
2022/01/31 06:46:49;;;;;;;16.73;3.72;;;;;;;2.49;53.33;100022.91;5526159;32;33916;-82
2022/01/31 06:49:52;;;;;;;17.85;3.42;;;;;;;2.41;53.88;100025.69;5525059;32;33528;-82
2022/01/31 06:52:56;;;;;;;11.55;3.00;;;;;;;2.59;53.16;100029.69;5515923;32;35290;-82
2022/01/31 06:55:59;;;;;;;15.27;3.40;;;;;;;2.54;53.44;100029.78;5530355;32;33755;-82
2022/01/31 06:59:02;;;;;;;11.98;3.22;;;;;;;2.47;53.56;100025.56;5521131;32;34474;-82
2022/01/31 07:02:05;;;;;;;10.88;2.95;;;;;;;2.45;53.87;100013.41;5512391;32;34032;-81
2022/01/31 07:05:08;;;;;;;18.05;3.67;;;;;;;2.51;52.92;100002.81;5511937;32;33900;-81
2022/01/31 07:08:13;;;;;;;15.70;3.78;;;;;;;2.39;53.71;100002.19;5510567;32;33800;-80
2022/01/31 07:11:21;;;;;;;17.80;3.85;;;;;;;2.30;54.31;100004.97;5524927;32;35102;-81
2022/01/31 07:14:38;;;;;;;18.05;3.92;;;;;;;2.44;53.84;99999.47;5484257;32;34001;-82
2022/01/31 07:17:43;;;;;;;18.55;4.07;;;;;;;2.51;53.59;100003.66;5478561;32;33836;-82
2022/01/31 07:20:50;;;;;;;16.27;3.50;;;;;;;2.52;53.78;99986.19;5476579;32;35056;-81
2022/01/31 07:24:16;;;;;;;18.65;3.85;;;;;;;2.47;53.87;99988.06;5489717;32;33691;-82
2022/01/31 07:27:19;;;;;;;12.30;3.92;;;;;;;2.36;54.85;99981.28;5484427;32;34120;-81
2022/01/31 07:30:23;;;;;;;12.63;3.15;;;;;;;2.36;54.59;99980.44;5490464;32;34053;-81
2022/01/31 07:33:27;;;;;;;14.25;3.33;;;;;;;2.39;54.22;99986.47;5492260;32;34609;-82
2022/01/31 07:36:30;;;;;;;18.50;3.87;;;;;;;2.61;54.21;99972.03;5491939;32;33610;-82
2022/01/31 07:39:33;;;;;;;12.20;4.18;;;;;;;2.68;53.78;99961.34;5493674;32;33477;-82
2022/01/31 07:42:36;;;;;;;17.00;4.43;;;;;;;2.89;53.03;99959.12;5496107;32;34240;-82
2022/01/31 07:45:39;;;;;;;19.75;4.37;;;;;;;3.00;53.22;99958.00;5534058;32;33967;-81
2022/01/31 07:48:42;;;;;;;12.55;4.10;;;;;;;3.26;52.68;99943.38;5521380;32;34802;-81
2022/01/31 07:51:45;;;;;;;14.40;3.80;;;;;;;3.38;51.69;99948.28;5535171;32;34704;-81
2022/01/31 07:54:47;;;;;;;16.35;3.53;;;;;;;3.48;51.70;99933.16;5528576;32;33696;-80
2022/01/31 07:57:50;;;;;;;17.10;3.42;;;;;;;3.37;52.47;99938.72;5534000;32;34395;-83
2022/01/31 08:00:53;;;;;;;20.45;4.20;;;;;;;3.33;53.73;99919.56;5541334;32;34675;-84
2022/01/31 08:03:56;;;;;;;15.40;4.10;;;;;;;3.67;52.77;99919.53;5524625;32;34986;-85
2022/01/31 08:06:59;;;;;;;14.02;3.55;;;;;;;3.92;51.51;99922.28;5534107;32;35210;-85
2022/01/31 08:10:05;;;;;;;17.83;3.95;;;;;;;4.18;50.95;99920.69;5521690;32;34386;-82
2022/01/31 08:13:09;;;;;;;15.35;4.53;;;;;;;4.28;50.43;99926.50;5518924;32;33816;-82
2022/01/31 08:16:13;;;;;;;18.42;4.15;;;;;;;4.23;50.69;99931.03;5518496;32;34098;-82
2022/01/31 08:19:16;;;;;;;15.32;3.83;;;;;;;4.24;50.75;99923.09;5515348;32;33838;-82
2022/01/31 08:22:39;;;;;;;12.10;3.62;;;;;;;4.19;50.77;99919.75;5512965;32;33847;-81
2022/01/31 08:25:47;;;;;;;15.80;4.15;;;;;;;4.23;50.92;99925.78;5514987;32;34062;-83
2022/01/31 08:28:59;;;;;;;16.65;3.42;;;;;;;4.23;50.56;99918.75;5516451;32;34616;-84
2022/01/31 08:32:33;;;;;;;17.95;4.43;;;;;;;4.13;50.93;99925.19;5523628;32;34409;-83
2022/01/31 08:35:48;;;;;;;14.20;3.25;;;;;;;4.18;51.00;99923.31;5525487;32;34189;-83
2022/01/31 08:38:51;;;;;;;21.00;4.95;;;;;;;3.98;52.01;99922.09;5521910;32;33962;-83
2022/01/31 08:41:54;;;;;;;15.93;3.47;;;;;;;3.99;51.80;99912.47;5525977;32;34737;-83
2022/01/31 08:44:56;;;;;;;14.80;4.10;;;;;;;4.06;51.71;99916.63;5528220;32;34931;-83
2022/01/31 08:47:59;;;;;;;13.77;3.78;;;;;;;4.10;51.69;99905.16;5535138;32;33995;-82
2022/01/31 08:51:06;;;;;;;11.15;3.65;;;;;;;4.03;51.63;99901.00;5535130;32;34013;-83
2022/01/31 08:54:10;;;;;;;18.90;4.10;;;;;;;4.11;52.92;99896.34;5534455;32;34046;-83
2022/01/31 08:57:13;;;;;;;17.45;4.15;;;;;;;4.40;50.76;99891.09;5536147;32;34864;-83
2022/01/31 09:00:16;;;;;;;17.52;4.43;;;;;;;4.25;51.67;99879.31;5537082;32;33897;-83
2022/01/31 09:03:34;;;;;;;18.80;4.32;;;;;;;4.39;51.26;99869.25;5525723;32;34247;-83
2022/01/31 09:06:38;;;;;;;14.57;4.00;;;;;;;4.56;50.10;99875.69;5524249;32;35335;-88
2022/01/31 09:09:41;;;;;;;21.50;4.35;;;;;;;4.64;49.92;99871.06;5533413;32;34312;-87
2022/01/31 09:12:44;;;;;;;16.23;4.35;;;;;;;4.82;49.45;99874.84;5532668;32;33533;-86
2022/01/31 09:15:47;;;;;;;11.98;4.30;;;;;;;5.24;48.41;99865.50;5531270;32;34165;-82
2022/01/31 09:18:51;;;;;;;15.50;3.92;;;;;;;5.16;47.70;99864.06;5518667;32;33893;-81
2022/01/31 09:21:53;;;;;;;17.95;5.82;;;;;;;5.17;48.24;99864.00;5513676;32;33793;-82
2022/01/31 09:24:56;;;;;;;20.52;5.15;;;;;;;4.86;48.94;99870.34;5531183;32;33848;-82
2022/01/31 09:28:02;;;;;;;15.07;3.67;;;;;;;5.16;48.50;99872.81;5514003;32;34275;-81
2022/01/31 09:31:05;;;;;;;12.95;4.03;;;;;;;5.07;48.01;99868.72;5525181;32;33930;-82
2022/01/31 09:34:07;;;;;;;11.65;3.50;;;;;;;5.17;48.69;99860.53;5528059;32;34692;-82
2022/01/31 09:37:13;;;;;;;13.95;3.75;;;;;;;5.19;48.46;99843.75;5523061;32;34408;-82
2022/01/31 09:40:21;;;;;;;15.80;3.70;;;;;;;5.00;49.02;99846.22;5516141;32;34684;-82
2022/01/31 09:43:50;;;;;;;14.55;3.10;;;;;;;5.12;48.04;99829.12;5515530;32;34056;-82
2022/01/31 09:49:55;;;;;;;10.95;2.97;;;;;;;5.12;48.70;99816.84;5515068;32;34249;-82
2022/01/31 09:52:57;;;;;;;17.00;3.45;;;;;;;5.03;48.55;99809.28;5513823;32;33931;-82
2022/01/31 09:56:00;;;;;;;14.65;3.35;;;;;;;5.06;49.29;99795.16;5532080;32;34159;-82
2022/01/31 09:59:05;;;;;;;11.10;3.47;;;;;;;5.17;48.36;99784.28;5532798;32;34571;-82
2022/01/31 10:02:11;;;;;;;13.98;3.67;;;;;;;5.01;49.40;99783.94;5534473;32;33693;-82
2022/01/31 10:05:27;;;;;;;13.48;3.37;;;;;;;5.24;49.15;99773.44;5535277;32;34285;-82
2022/01/31 10:08:30;;;;;;;13.48;3.53;;;;;;;5.44;48.86;99763.09;5526680;32;34245;-82
2022/01/31 10:11:49;;;;;;;14.25;3.65;;;;;;;5.32;49.13;99760.03;5535074;32;33697;-82
2022/01/31 10:18:14;;;;;;;15.73;3.50;;;;;;;5.19;49.60;99758.78;5535602;32;35322;-83
2022/01/31 10:22:01;;;;;;;14.48;4.03;;;;;;;4.98;49.44;99745.53;5523499;32;33923;-84
2022/01/31 10:25:09;;;;;;;12.50;3.10;;;;;;;5.36;49.16;99745.84;5527730;32;33876;-83
2022/01/31 10:28:38;;;;;;;13.32;3.90;;;;;;;5.63;47.88;99734.31;5517319;32;34311;-83
2022/01/31 10:31:53;;;;;;;13.93;3.62;;;;;;;5.92;48.08;99727.88;5514389;32;33997;-83
2022/01/31 10:35:06;;;;;;;15.85;4.00;;;;;;;6.16;46.84;99714.66;5521135;32;34832;-83
2022/01/31 10:38:13;;;;;;;13.30;3.53;;;;;;;5.65;50.02;99717.53;5519634;32;35324;-83
2022/01/31 10:52:04;;;;;;;19.52;3.50;;;;;;;6.13;46.54;99690.22;5531675;32;34729;-82
2022/01/31 10:55:15;;;;;;;13.85;3.90;;;;;;;6.04;46.92;99676.50;5533953;32;34001;-83
2022/01/31 10:58:19;;;;;;;12.90;3.40;;;;;;;5.92;47.00;99672.59;5534297;32;35023;-82
2022/01/31 11:01:23;;;;;;;10.90;3.33;;;;;;;6.07;45.98;99662.34;5534312;32;34384;-83
2022/01/31 11:04:38;;;;;;;15.57;3.90;;;;;;;6.06;47.66;99652.75;5533149;32;34348;-82
2022/01/31 11:07:40;;;;;;;9.38;3.33;;;;;;;5.92;47.42;99634.87;5521666;32;34159;-82
2022/01/31 11:10:44;;;;;;;11.02;3.62;;;;;;;5.46;47.49;99641.13;5524219;32;34300;-82
2022/01/31 11:13:48;;;;;;;8.77;2.70;;;;;;;5.86;46.47;99628.09;5522532;32;35060;-80
2022/01/31 11:17:12;;;;;;;17.80;3.47;;;;;;;5.56;47.20;99624.94;5517835;32;34580;-82
2022/01/31 11:20:15;;;;;;;11.75;2.80;;;;;;;5.40;48.42;99625.59;5528168;32;34161;-81
2022/01/31 11:23:21;;;;;;;11.65;2.95;;;;;;;5.39;47.49;99608.94;5536057;32;33879;-81
2022/01/31 11:26:25;;;;;;;12.75;2.92;;;;;;;5.56;47.12;99585.50;5528499;32;34690;-81
2022/01/31 11:29:29;;;;;;;9.30;3.28;;;;;;;5.43;47.55;99580.72;5515315;32;34070;-81
2022/01/31 11:32:33;;;;;;;12.50;3.03;;;;;;;5.44;47.76;99574.59;5523526;32;34519;-82
2022/01/31 11:35:36;;;;;;;12.85;3.50;;;;;;;5.51;48.11;99578.66;5525772;32;35062;-81
2022/01/31 11:38:40;;;;;;;13.43;3.33;;;;;;;5.73;47.21;99569.84;5527889;32;34206;-81
2022/01/31 11:41:51;;;;;;;10.77;3.47;;;;;;;5.87;46.17;99548.22;5530357;32;34090;-81
2022/01/31 11:45:08;;;;;;;11.05;2.97;;;;;;;5.90;46.79;99548.06;5536409;32;34184;-81
2022/01/31 11:48:24;;;;;;;12.60;3.62;;;;;;;5.68;47.67;99548.12;5526899;32;34678;-86
2022/01/31 11:51:27;;;;;;;8.60;2.80;;;;;;;6.05;46.02;99548.34;5517143;32;32962;-82
2022/01/31 11:54:30;;;;;;;8.82;2.90;;;;;;;5.64;47.39;99531.62;5517474;32;34367;-83
2022/01/31 11:57:37;;;;;;;7.78;3.08;;;;;;;6.03;46.02;99524.72;5531057;32;32558;-84
2022/01/31 12:00:42;;;;;;;11.43;3.12;;;;;;;6.11;45.76;99507.72;5525286;32;34743;-84
2022/01/31 12:03:54;;;;;;;8.35;3.28;;;;;;;5.94;45.53;99490.87;5528933;32;34396;-84
2022/01/31 12:07:32;;;;;;;11.15;2.70;;;;;;;5.82;45.81;99501.97;5534577;32;35038;-84
2022/01/31 12:10:40;;;;;;;9.07;3.35;;;;;;;5.61;46.30;99502.81;5534342;32;34098;-81
2022/01/31 12:13:50;;;;;;;14.98;3.40;;;;;;;5.43;46.49;99508.88;5538212;32;34275;-83
2022/01/31 12:17:17;;;;;;;9.00;2.90;;;;;;;5.31;47.29;99511.09;5533963;32;34266;-83
2022/01/31 12:24:27;;;;;;;12.50;3.08;;;;;;;5.34;47.62;99520.63;5517019;32;33783;-83
2022/01/31 12:27:29;;;;;;;11.35;3.35;;;;;;;5.46;47.63;99519.25;5534663;32;33780;-83
2022/01/31 12:30:35;;;;;;;9.43;2.95;;;;;;;5.42;47.41;99513.28;5537609;32;34179;-82
2022/01/31 12:33:40;;;;;;;15.05;3.03;;;;;;;5.12;48.18;99511.88;5533744;32;34271;-83
2022/01/31 12:36:43;;;;;;;9.63;3.35;;;;;;;5.24;47.91;99505.22;5531771;32;34662;-84
2022/01/31 12:39:57;;;;;;;14.68;3.30;;;;;;;5.26;48.20;99499.91;5529471;32;34165;-83
2022/01/31 12:43:48;;;;;;;11.15;3.28;;;;;;;5.14;48.22;99490.78;5536938;32;34228;-83
2022/01/31 12:46:51;;;;;;;11.15;3.50;;;;;;;5.13;47.99;99484.66;5543293;32;35155;-83
2022/01/31 12:50:19;;;;;;;8.63;3.08;;;;;;;5.10;48.19;99481.28;5540253;32;34112;-82
2022/01/31 12:53:22;;;;;;;16.92;3.90;;;;;;;5.04;48.90;99471.03;5536431;32;33722;-84
2022/01/31 12:56:29;;;;;;;12.88;3.60;;;;;;;5.07;48.54;99466.50;5541414;32;35206;-82
2022/01/31 12:59:39;;;;;;;14.23;4.15;;;;;;;5.01;48.79;99468.50;5532161;32;34155;-82
2022/01/31 13:03:06;;;;;;;11.12;3.62;;;;;;;4.99;49.17;99461.56;5541146;32;34094;-82
2022/01/31 13:06:25;;;;;;;19.90;4.53;;;;;;;5.02;49.61;99457.94;5548242;32;33783;-83
2022/01/31 13:09:37;;;;;;;15.80;4.20;;;;;;;5.08;49.48;99455.06;5554447;32;35471;-83
2022/01/31 13:12:40;;;;;;;18.35;3.97;;;;;;;5.06;49.27;99461.28;5556586;32;34074;-83
2022/01/31 13:15:43;;;;;;;16.92;4.30;;;;;;;5.12;49.66;99440.88;5553564;32;34207;-82
2022/01/31 13:18:46;;;;;;;12.35;3.70;;;;;;;5.23;49.21;99427.25;5555342;32;34203;-82
2022/01/31 13:21:51;;;;;;;15.82;4.10;;;;;;;5.14;49.37;99417.16;5556163;32;34184;-82
2022/01/31 13:24:56;;;;;;;13.20;3.87;;;;;;;5.02;49.78;99422.94;5547951;32;33801;-82
2022/01/31 13:28:00;;;;;;;14.02;3.55;;;;;;;5.33;48.93;99424.25;5555230;32;34979;-82
2022/01/31 13:31:08;;;;;;;10.80;3.55;;;;;;;5.21;49.12;99412.47;5553505;32;34072;-82
2022/01/31 13:34:11;;;;;;;10.80;3.60;;;;;;;5.17;49.10;99405.66;5550232;32;34154;-82
2022/01/31 13:37:30;;;;;;;15.98;3.85;;;;;;;4.99;49.50;99395.00;5557980;32;34210;-82
2022/01/31 13:40:39;;;;;;;12.10;3.80;;;;;;;5.19;49.08;99404.63;5559488;32;34347;-82
2022/01/31 13:43:46;;;;;;;12.35;3.97;;;;;;;5.31;49.13;99395.38;5558316;32;33895;-82
2022/01/31 13:46:55;;;;;;;12.23;3.67;;;;;;;5.30;49.46;99390.19;5557215;32;35019;-81
2022/01/31 13:50:02;;;;;;;15.90;4.10;;;;;;;5.52;48.92;99392.72;5559791;32;34070;-82
2022/01/31 13:53:17;;;;;;;15.88;4.03;;;;;;;5.50;48.87;99379.66;5559878;32;34177;-82
2022/01/31 13:56:21;;;;;;;9.63;3.40;;;;;;;5.60;48.41;99385.34;5561167;32;34423;-82
2022/01/31 13:59:29;;;;;;;14.98;3.70;;;;;;;5.34;48.92;99378.63;5560264;32;34222;-82
2022/01/31 14:02:32;;;;;;;10.55;3.90;;;;;;;5.20;49.60;99364.31;5560282;32;34201;-86
2022/01/31 14:05:37;;;;;;;10.13;4.10;;;;;;;5.05;50.04;99370.22;5562704;32;34214;-86
2022/01/31 14:08:41;;;;;;;15.88;4.35;;;;;;;4.85;50.80;99358.78;5562187;32;35135;-86
2022/01/31 14:11:44;;;;;;;18.75;4.78;;;;;;;4.75;51.52;99367.97;5561688;32;34097;-83
2022/01/31 14:14:49;;;;;;;12.93;4.43;;;;;;;4.77;51.37;99372.25;5561547;32;35293;-83
2022/01/31 14:17:53;;;;;;;12.40;4.50;;;;;;;4.89;50.89;99373.50;5562856;32;34290;-83
2022/01/31 14:20:56;;;;;;;16.05;4.55;;;;;;;4.79;51.16;99372.19;5561365;32;34883;-83
2022/01/31 14:24:01;;;;;;;13.07;4.82;;;;;;;4.73;51.60;99368.06;5561552;32;33904;-82
2022/01/31 14:27:25;;;;;;;14.85;4.80;;;;;;;4.71;51.56;99362.84;5560338;32;34283;-83
2022/01/31 14:30:29;;;;;;;11.60;4.07;;;;;;;4.62;52.01;99365.00;5560312;32;34424;-82
2022/01/31 14:33:32;;;;;;;13.50;5.10;;;;;;;4.59;52.19;99368.63;5560144;32;34503;-82
2022/01/31 14:36:41;;;;;;;12.37;4.43;;;;;;;4.72;51.62;99358.44;5559313;32;34049;-82
2022/01/31 14:40:00;;;;;;;14.80;4.50;;;;;;;4.73;51.79;99357.53;5559584;32;34155;-82
2022/01/31 14:43:21;;;;;;;12.73;3.75;;;;;;;4.47;52.08;99369.13;5560157;32;34776;-82
2022/01/31 14:50:10;;;;;;;14.23;3.50;;;;;;;4.52;50.96;99354.88;5559535;32;34136;-82
2022/01/31 14:53:16;;;;;;;10.30;3.28;;;;;;;4.39;51.23;99345.78;5545200;32;34844;-82
2022/01/31 14:56:19;;;;;;;13.07;3.55;;;;;;;4.35;51.71;99345.06;5558132;32;35133;-87
2022/01/31 14:59:22;;;;;;;12.13;3.40;;;;;;;4.40;51.70;99348.34;5557447;32;34354;-87
2022/01/31 15:02:25;;;;;;;12.25;3.35;;;;;;;4.25;52.30;99347.22;5560392;32;34290;-88
2022/01/31 15:05:36;;;;;;;10.37;3.60;;;;;;;4.30;52.41;99345.25;5564389;32;34351;-84
2022/01/31 15:08:41;;;;;;;14.18;4.32;;;;;;;4.34;53.00;99355.63;5558995;32;35158;-84
2022/01/31 15:11:45;;;;;;;12.43;3.65;;;;;;;4.27;53.94;99349.78;5563345;32;34447;-84
2022/01/31 15:14:49;;;;;;;10.82;3.65;;;;;;;4.12;54.23;99351.25;5565093;32;35274;-83
2022/01/31 15:17:54;;;;;;;18.48;6.43;;;;;;;4.10;54.37;99348.66;5556186;32;36899;-83
2022/01/31 15:21:00;;;;;;;10.60;3.85;;;;;;;4.01;56.34;99338.50;5556450;32;34188;-83
2022/01/31 15:24:04;;;;;;;10.38;3.83;;;;;;;3.98;55.05;99336.03;5555763;32;35091;-83
2022/01/31 15:27:07;;;;;;;9.50;3.58;;;;;;;3.93;54.73;99338.84;5556720;32;33802;-83
2022/01/31 15:30:11;;;;;;;13.48;4.22;;;;;;;3.90;54.96;99346.81;5556914;32;34411;-83
2022/01/31 15:33:14;;;;;;;10.32;3.92;;;;;;;3.87;55.26;99354.81;5557239;32;34281;-83
2022/01/31 15:36:17;;;;;;;14.48;3.65;;;;;;;3.82;55.82;99346.28;5557569;32;34019;-83
2022/01/31 15:39:21;;;;;;;8.50;3.70;;;;;;;3.88;55.41;99352.13;5556133;32;33967;-83
2022/01/31 15:42:25;;;;;;;10.70;3.58;;;;;;;3.82;55.90;99352.34;5555824;32;34584;-83
2022/01/31 15:45:28;;;;;;;9.15;3.78;;;;;;;3.73;56.41;99348.31;5555717;32;35336;-83
2022/01/31 15:48:35;;;;;;;10.38;3.60;;;;;;;3.61;57.00;99357.50;5555680;32;34880;-83
2022/01/31 15:51:47;;;;;;;12.88;3.55;;;;;;;3.62;57.15;99356.59;5552496;32;33932;-83
2022/01/31 15:54:58;;;;;;;13.18;3.87;;;;;;;3.71;56.88;99371.13;5553403;32;34439;-83
2022/01/31 15:58:13;;;;;;;6.95;3.30;;;;;;;3.64;57.32;99362.63;5552823;32;33868;-83
2022/01/31 16:01:19;;;;;;;12.75;3.70;;;;;;;3.62;57.49;99367.09;5558145;32;34329;-82
2022/01/31 16:04:24;;;;;;;11.75;3.95;;;;;;;3.59;57.34;99359.34;5555984;32;33950;-82
2022/01/31 16:07:27;;;;;;;11.93;3.90;;;;;;;3.58;57.15;99370.72;5554734;32;34742;-83
2022/01/31 16:10:30;;;;;;;9.60;3.33;;;;;;;3.47;57.58;99365.88;5555038;32;33877;-83
2022/01/31 16:13:35;;;;;;;11.23;3.47;;;;;;;3.39;57.57;99373.19;5556584;32;34509;-82
2022/01/31 16:16:40;;;;;;;11.15;3.62;;;;;;;3.45;57.55;99364.22;5556803;32;34297;-82
2022/01/31 16:19:43;;;;;;;12.05;4.30;;;;;;;3.32;57.98;99364.66;5556379;32;34646;-82
2022/01/31 16:22:47;;;;;;;14.02;4.50;;;;;;;3.40;57.55;99364.41;5555516;32;34938;-83
2022/01/31 16:25:50;;;;;;;13.23;4.65;;;;;;;3.53;57.30;99372.69;5555224;32;34038;-83
2022/01/31 16:28:53;;;;;;;23.05;6.70;;;;;;;3.50;57.26;99378.91;5555373;32;34179;-82
2022/01/31 16:31:56;;;;;;;26.85;8.43;;;;;;;3.45;57.47;99375.56;5555414;32;34242;-82
2022/01/31 16:34:59;;;;;;;15.90;5.45;;;;;;;3.53;57.46;99379.69;5555018;32;33873;-87
